Time;durP1;ratioP1;P1;durP2;ratioP2;P2;SDS_P1;SDS_P2;PMS_P1;PMS_P2;Temp;Humidity;BMP_temperature;BMP_pressure;BME280_temperature;BME280_humidity;BME280_pressure;Samples;Min_cycle;Max_cycle;Signal;HPM_P1;HPM_P2
2021/07/28 00:01:32;;;;;;;3.10;2.90;;;23.30;64.50;;;;;;5054021;28;20699;-72
2021/07/28 00:03:58;;;;;;;3.13;2.92;;;23.20;64.50;;;;;;5054172;28;20175;-72
2021/07/28 00:06:23;;;;;;;3.60;3.30;;;23.20;64.40;;;;;;5054019;28;20273;-73
2021/07/28 00:08:49;;;;;;;3.45;3.13;;;23.20;64.40;;;;;;5054305;28;20377;-71
2021/07/28 00:11:15;;;;;;;3.30;3.00;;;23.20;64.50;;;;;;5053895;28;20640;-72
2021/07/28 00:13:41;;;;;;;3.60;3.30;;;23.20;64.50;;;;;;5054049;28;20179;-71
2021/07/28 00:16:10;;;;;;;3.20;3.00;;;23.20;64.40;;;;;;5054243;28;20215;-71
2021/07/28 00:24:07;;;;;;;2.90;2.70;;;23.20;64.40;;;;;;5053788;28;20214;-73
2021/07/28 00:26:33;;;;;;;3.33;2.90;;;23.20;64.40;;;;;;5052665;28;20251;-72
2021/07/28 00:28:58;;;;;;;3.65;3.35;;;23.20;64.40;;;;;;5054028;28;20229;-72
2021/07/28 00:31:24;;;;;;;3.30;3.00;;;23.20;64.40;;;;;;5053302;28;20520;-73
2021/07/28 00:33:49;;;;;;;3.33;3.03;;;23.10;64.40;;;;;;5053900;28;20186;-71
2021/07/28 00:36:15;;;;;;;3.45;3.15;;;23.10;64.40;;;;;;5054002;28;20171;-71
2021/07/28 00:38:40;;;;;;;2.92;2.72;;;23.20;64.40;;;;;;5053269;28;20218;-72
2021/07/28 00:41:06;;;;;;;3.75;3.35;;;23.10;64.40;;;;;;5053531;28;20205;-72
2021/07/28 00:43:32;;;;;;;3.63;3.33;;;23.10;64.40;;;;;;5053689;28;20496;-75
2021/07/28 00:45:58;;;;;;;3.45;3.15;;;23.10;64.40;;;;;;5053248;28;20249;-73
2021/07/28 00:48:23;;;;;;;3.28;2.97;;;23.10;64.40;;;;;;5053281;28;20265;-73
2021/07/28 00:50:49;;;;;;;3.17;2.97;;;23.10;64.40;;;;;;5052943;28;20183;-72
2021/07/28 00:53:20;;;;;;;3.47;3.17;;;23.10;64.40;;;;;;5035390;28;20179;-73
2021/07/28 00:55:50;;;;;;;3.50;3.20;;;23.10;64.40;;;;;;5053319;28;20205;-72
2021/07/28 00:58:16;;;;;;;3.10;2.90;;;23.10;64.40;;;;;;5053489;28;20183;-73
2021/07/28 01:00:42;;;;;;;3.25;2.95;;;23.10;64.40;;;;;;5053184;28;20197;-73
2021/07/28 01:03:08;;;;;;;3.20;3.00;;;23.10;64.40;;;;;;5053161;28;20673;-73
2021/07/28 01:05:33;;;;;;;2.90;2.70;;;23.10;64.40;;;;;;5053099;28;20190;-75
2021/07/28 01:07:59;;;;;;;3.22;2.92;;;23.10;64.50;;;;;;5034941;28;20234;-72
2021/07/28 01:10:24;;;;;;;2.90;2.63;;;23.10;64.50;;;;;;5034856;28;20202;-73
2021/07/28 01:12:54;;;;;;;3.10;2.90;;;23.10;64.50;;;;;;5053446;28;20186;-73
2021/07/28 01:15:32;;;;;;;3.20;2.90;;;23.10;64.40;;;;;;5052523;28;20186;-74
2021/07/28 01:18:02;;;;;;;3.47;3.20;;;23.10;64.40;;;;;;5053636;28;20648;-74
2021/07/28 01:20:34;;;;;;;3.53;3.22;;;23.10;64.40;;;;;;5052546;28;20187;-74
2021/07/28 01:22:59;;;;;;;3.22;3.00;;;23.10;64.50;;;;;;5052923;28;20533;-74
2021/07/28 01:25:25;;;;;;;2.75;2.55;;;23.10;64.50;;;;;;5035347;28;20651;-74
2021/07/28 01:27:51;;;;;;;3.33;2.95;;;23.10;64.40;;;;;;5035569;28;20724;-73
2021/07/28 01:30:17;;;;;;;2.92;2.72;;;23.00;64.40;;;;;;5034960;28;20194;-74
2021/07/28 01:32:43;;;;;;;2.88;2.67;;;23.10;64.50;;;;;;5053309;28;20277;-74
2021/07/28 01:35:09;;;;;;;3.00;2.80;;;23.00;64.40;;;;;;5052883;28;20179;-73
2021/07/28 01:37:35;;;;;;;2.70;2.50;;;23.00;64.40;;;;;;5034425;28;20517;-74
2021/07/28 01:40:00;;;;;;;2.90;2.65;;;23.00;64.40;;;;;;5035391;28;20174;-72
2021/07/28 01:42:27;;;;;;;3.25;2.95;;;23.00;64.40;;;;;;5052021;28;20207;-73
2021/07/28 01:44:53;;;;;;;3.28;2.97;;;23.00;64.40;;;;;;5052657;28;20175;-73
2021/07/28 01:47:18;;;;;;;3.00;2.70;;;23.00;64.40;;;;;;5053064;28;20227;-73
2021/07/28 01:49:44;;;;;;;3.20;2.83;;;23.00;64.40;;;;;;5053539;28;20171;-72
2021/07/28 01:52:09;;;;;;;3.33;3.00;;;23.00;64.40;;;;;;5052272;28;20171;-72
2021/07/28 01:54:35;;;;;;;3.03;2.70;;;23.00;64.40;;;;;;5052221;28;20670;-74
2021/07/28 01:57:00;;;;;;;2.90;2.70;;;23.00;64.40;;;;;;5052111;28;20187;-72
2021/07/28 01:59:26;;;;;;;2.47;2.30;;;23.00;64.40;;;;;;5051844;28;20167;-74
2021/07/28 02:01:51;;;;;;;2.90;2.70;;;23.00;64.40;;;;;;5052162;28;20207;-73
2021/07/28 02:04:17;;;;;;;2.83;2.63;;;23.00;65.20;;;;;;5051760;28;20202;-72
2021/07/28 02:06:43;;;;;;;2.85;2.65;;;23.00;64.40;;;;;;5052182;28;20230;-72
2021/07/28 02:09:08;;;;;;;2.78;2.58;;;23.00;64.40;;;;;;5052125;28;20627;-73
2021/07/28 02:11:35;;;;;;;2.47;2.30;;;23.00;64.40;;;;;;5051340;28;20185;-74
2021/07/28 02:14:00;;;;;;;2.53;2.33;;;23.00;64.40;;;;;;5052281;28;20183;-72
2021/07/28 02:16:26;;;;;;;3.58;2.92;;;23.00;64.40;;;;;;5051452;28;20229;-72
2021/07/28 02:18:51;;;;;;;2.75;2.55;;;22.90;64.30;;;;;;5051866;28;20258;-73
2021/07/28 02:21:17;;;;;;;3.08;2.70;;;23.00;64.40;;;;;;5051526;28;20210;-72
2021/07/28 02:23:42;;;;;;;2.75;2.55;;;23.00;64.40;;;;;;5051333;28;20585;-73
2021/07/28 02:26:08;;;;;;;3.03;2.83;;;22.90;64.30;;;;;;5051942;28;20179;-72
2021/07/28 02:28:33;;;;;;;2.97;2.70;;;23.00;64.40;;;;;;5051572;28;20178;-73
2021/07/28 02:30:59;;;;;;;2.40;2.20;;;22.90;64.30;;;;;;5051474;28;20529;-74
2021/07/28 02:33:24;;;;;;;2.60;2.40;;;22.90;64.30;;;;;;5051379;28;20201;-74
2021/07/28 02:35:50;;;;;;;2.42;2.33;;;23.00;64.40;;;;;;5051891;28;20171;-72
2021/07/28 02:38:16;;;;;;;3.00;2.28;;;23.00;64.40;;;;;;5051520;28;20171;-73
2021/07/28 02:40:41;;;;;;;3.33;2.60;;;22.90;65.20;;;;;;5051690;28;20174;-72
2021/07/28 02:43:07;;;;;;;2.65;2.45;;;22.90;64.30;;;;;;5051131;28;20234;-72
2021/07/28 02:45:33;;;;;;;2.88;2.67;;;22.90;64.30;;;;;;5051256;28;20181;-73
2021/07/28 02:48:02;;;;;;;2.63;2.38;;;22.90;64.30;;;;;;5051464;28;20175;-72
2021/07/28 02:50:28;;;;;;;2.88;2.65;;;23.00;64.40;;;;;;5057167;28;20648;-72
2021/07/28 02:52:53;;;;;;;3.30;3.10;;;22.90;64.30;;;;;;5057871;28;20254;-72
2021/07/28 02:55:19;;;;;;;3.20;2.95;;;22.90;64.30;;;;;;5057917;28;20174;-73
2021/07/28 02:57:44;;;;;;;2.58;2.38;;;22.90;64.30;;;;;;5058478;28;20181;-72
2021/07/28 03:00:10;;;;;;;2.40;2.20;;;22.90;64.30;;;;;;5057761;28;20175;-73
2021/07/28 03:02:36;;;;;;;3.08;2.65;;;22.90;64.30;;;;;;5057794;28;20722;-74
2021/07/28 03:05:01;;;;;;;2.53;2.33;;;22.90;64.30;;;;;;5058058;28;20244;-73
2021/07/28 03:07:27;;;;;;;3.13;2.45;;;22.90;64.30;;;;;;5056658;28;20309;-74
2021/07/28 03:09:52;;;;;;;3.35;2.30;;;22.90;64.30;;;;;;5057022;28;20178;-72
2021/07/28 03:12:18;;;;;;;3.22;2.80;;;22.90;64.30;;;;;;5055713;28;20523;-73
2021/07/28 03:14:44;;;;;;;2.60;2.33;;;22.90;64.30;;;;;;5057474;28;20175;-73
2021/07/28 03:17:09;;;;;;;3.20;2.95;;;22.90;64.30;;;;;;5058213;28;20514;-73
2021/07/28 03:19:35;;;;;;;2.83;2.63;;;22.90;64.30;;;;;;5056876;28;20615;-74
2021/07/28 03:22:00;;;;;;;2.55;2.35;;;22.90;64.30;;;;;;5056515;28;20214;-73
2021/07/28 03:24:26;;;;;;;3.67;2.80;;;22.90;64.30;;;;;;5056511;28;20764;-73
2021/07/28 03:26:51;;;;;;;2.47;2.28;;;22.90;64.30;;;;;;5057708;28;20479;-72
2021/07/28 03:29:17;;;;;;;3.20;2.90;;;22.90;64.30;;;;;;5057649;28;20173;-73
2021/07/28 03:31:43;;;;;;;2.67;2.47;;;22.90;64.30;;;;;;5058080;28;20183;-71
2021/07/28 03:34:08;;;;;;;3.25;3.00;;;22.90;64.30;;;;;;5056962;28;20182;-71
2021/07/28 03:36:34;;;;;;;3.30;3.00;;;22.90;64.30;;;;;;5057664;28;20182;-72
2021/07/28 03:38:59;;;;;;;3.45;2.75;;;22.90;64.30;;;;;;5058067;28;20199;-71
2021/07/28 03:41:25;;;;;;;2.90;2.47;;;22.90;64.40;;;;;;5057120;28;20211;-73
2021/07/28 03:43:50;;;;;;;3.90;2.85;;;22.90;64.30;;;;;;5057766;28;20174;-72
2021/07/28 03:46:16;;;;;;;3.03;2.83;;;22.90;64.30;;;;;;5057508;28;20459;-72
2021/07/28 03:48:41;;;;;;;3.17;2.88;;;22.90;64.30;;;;;;5057255;28;20236;-72
2021/07/28 03:51:07;;;;;;;3.10;2.90;;;22.90;64.30;;;;;;5058004;28;20605;-71
2021/07/28 03:53:34;;;;;;;3.17;2.88;;;22.90;64.30;;;;;;5057322;28;20167;-74
2021/07/28 03:56:00;;;;;;;2.78;2.58;;;22.80;64.30;;;;;;5057378;28;20179;-72
2021/07/28 03:58:25;;;;;;;2.72;2.53;;;22.90;64.30;;;;;;5057212;28;20175;-74
2021/07/28 04:00:51;;;;;;;2.92;2.72;;;22.90;64.40;;;;;;5056314;28;20187;-73
2021/07/28 04:03:16;;;;;;;2.65;2.45;;;22.80;64.30;;;;;;5053848;28;20228;-72
2021/07/28 04:05:42;;;;;;;2.80;2.60;;;22.80;64.30;;;;;;5054349;28;20182;-70
2021/07/28 04:08:07;;;;;;;3.90;2.75;;;22.80;64.30;;;;;;5054403;28;20488;-73
2021/07/28 04:10:33;;;;;;;3.10;2.80;;;22.90;64.30;;;;;;5053804;28;20211;-73
2021/07/28 04:13:01;;;;;;;3.00;2.80;;;22.80;64.30;;;;;;5054144;28;20171;-73
2021/07/28 04:15:27;;;;;;;2.92;2.72;;;22.80;64.30;;;;;;5053922;28;20328;-73
2021/07/28 04:17:52;;;;;;;2.97;2.60;;;22.90;64.40;;;;;;5053546;28;20167;-73
2021/07/28 04:20:18;;;;;;;3.08;2.88;;;22.80;64.30;;;;;;5053724;28;20527;-73
2021/07/28 04:22:43;;;;;;;3.15;2.70;;;22.80;64.30;;;;;;5053886;28;20222;-72
2021/07/28 04:25:10;;;;;;;2.83;2.53;;;22.80;64.30;;;;;;5053224;28;20175;-73
2021/07/28 04:27:35;;;;;;;3.97;2.90;;;22.80;64.30;;;;;;5053658;28;20179;-72
2021/07/28 04:30:01;;;;;;;2.85;2.53;;;22.80;64.30;;;;;;5053298;28;20183;-74
2021/07/28 04:32:26;;;;;;;2.83;2.63;;;22.80;64.30;;;;;;5052924;28;20651;-73
2021/07/28 04:34:52;;;;;;;2.80;2.50;;;22.80;64.30;;;;;;5053973;28;20180;-72
2021/07/28 04:37:18;;;;;;;2.85;2.65;;;22.80;64.30;;;;;;5052902;28;20221;-72
2021/07/28 04:39:43;;;;;;;2.63;2.42;;;22.80;64.30;;;;;;5053346;28;20175;-71
2021/07/28 04:42:09;;;;;;;2.92;2.72;;;22.80;64.30;;;;;;5053711;28;20211;-73
2021/07/28 04:44:37;;;;;;;2.78;2.58;;;22.80;64.30;;;;;;5052663;28;20514;-73
2021/07/28 04:47:03;;;;;;;2.80;2.60;;;22.80;64.30;;;;;;5053118;28;20171;-72
2021/07/28 04:49:28;;;;;;;2.95;2.75;;;22.80;64.30;;;;;;5053368;28;20182;-73
2021/07/28 04:51:54;;;;;;;2.67;2.47;;;22.80;64.30;;;;;;5052728;28;20566;-71
2021/07/28 04:54:19;;;;;;;3.13;2.65;;;22.80;64.30;;;;;;5052753;28;20179;-73
2021/07/28 04:56:45;;;;;;;2.67;2.47;;;22.80;64.30;;;;;;5053231;28;20167;-72
2021/07/28 04:59:10;;;;;;;2.97;2.78;;;22.80;64.40;;;;;;5052689;28;20178;-73
2021/07/28 05:01:36;;;;;;;2.92;2.72;;;22.80;64.30;;;;;;5052465;28;20242;-74
2021/07/28 05:04:02;;;;;;;3.20;2.90;;;22.80;64.30;;;;;;5053220;28;20175;-72
2021/07/28 05:06:27;;;;;;;2.67;2.47;;;22.80;64.30;;;;;;5052140;28;20218;-74
2021/07/28 05:08:53;;;;;;;2.88;2.67;;;22.80;64.30;;;;;;5052740;28;20201;-73
2021/07/28 05:11:18;;;;;;;2.75;2.55;;;22.80;64.30;;;;;;5052708;28;20171;-72
2021/07/28 05:13:44;;;;;;;3.40;3.10;;;22.80;64.40;;;;;;5051668;28;20171;-73
2021/07/28 05:16:10;;;;;;;2.47;2.28;;;22.80;64.40;;;;;;5052616;28;20252;-72
2021/07/28 05:18:35;;;;;;;3.35;2.72;;;22.80;64.40;;;;;;5052593;28;20183;-73
2021/07/28 05:21:01;;;;;;;2.97;2.78;;;22.80;64.40;;;;;;5052137;28;20184;-73
2021/07/28 05:23:26;;;;;;;2.80;2.50;;;22.80;65.20;;;;;;5052337;28;20171;-74
2021/07/28 05:25:52;;;;;;;3.00;2.80;;;22.80;64.40;;;;;;5052663;28;20480;-73
2021/07/28 05:28:17;;;;;;;3.63;3.15;;;22.80;64.40;;;;;;5051618;28;20244;-73
2021/07/28 05:30:43;;;;;;;3.42;3.13;;;22.80;64.40;;;;;;5052446;28;20305;-74
2021/07/28 05:33:11;;;;;;;2.95;2.75;;;22.80;64.30;;;;;;5052376;28;20171;-73
2021/07/28 05:35:37;;;;;;;3.97;3.38;;;22.80;64.40;;;;;;5052180;28;20265;-74
2021/07/28 05:38:03;;;;;;;3.33;3.03;;;22.80;64.30;;;;;;5052539;28;20213;-73
2021/07/28 05:40:29;;;;;;;3.65;3.15;;;22.80;64.40;;;;;;5051463;28;20531;-73
2021/07/28 05:42:55;;;;;;;2.92;2.72;;;22.80;64.40;;;;;;5052114;28;20211;-74
2021/07/28 05:45:20;;;;;;;3.00;2.80;;;22.70;64.40;;;;;;5051757;28;20625;-75
2021/07/28 05:47:46;;;;;;;3.67;3.38;;;22.80;64.40;;;;;;5051776;28;20175;-72
2021/07/28 05:50:12;;;;;;;3.20;2.97;;;22.80;64.40;;;;;;5051889;28;20522;-72
2021/07/28 05:52:38;;;;;;;3.10;2.80;;;22.80;64.40;;;;;;5051803;28;20189;-73
2021/07/28 05:55:04;;;;;;;3.40;2.67;;;22.80;64.40;;;;;;5051432;28;20174;-72
2021/07/28 05:57:29;;;;;;;3.47;3.17;;;22.80;64.40;;;;;;5051395;28;20229;-73
2021/07/28 05:59:55;;;;;;;3.38;3.17;;;22.80;64.40;;;;;;5051943;28;20199;-73
2021/07/28 06:02:20;;;;;;;3.55;3.00;;;22.80;64.40;;;;;;5051402;28;20220;-73
2021/07/28 06:04:46;;;;;;;3.45;3.17;;;22.80;64.40;;;;;;5051717;28;20167;-74
2021/07/28 06:07:12;;;;;;;3.67;3.25;;;22.80;64.40;;;;;;5051701;28;20310;-75
2021/07/28 06:09:38;;;;;;;3.33;3.03;;;22.80;64.40;;;;;;5050992;28;20257;-75
2021/07/28 06:12:04;;;;;;;3.13;2.83;;;22.80;64.40;;;;;;5051768;28;20249;-69
2021/07/28 06:14:29;;;;;;;4.10;3.22;;;22.80;64.40;;;;;;5051511;28;20286;-70
2021/07/28 06:16:55;;;;;;;4.05;2.85;;;22.80;64.40;;;;;;5051155;28;20207;-70
2021/07/28 06:19:20;;;;;;;3.20;2.90;;;22.80;64.40;;;;;;5051518;28;20224;-78
2021/07/28 06:21:46;;;;;;;3.00;2.80;;;22.80;64.50;;;;;;5051425;28;20299;-77
2021/07/28 06:24:11;;;;;;;4.43;3.20;;;22.80;64.40;;;;;;5050435;28;20182;-66
2021/07/28 06:26:37;;;;;;;3.70;3.30;;;22.80;64.50;;;;;;5051473;28;20171;-66
2021/07/28 06:29:02;;;;;;;5.85;3.53;;;22.80;64.70;;;;;;5051405;28;20179;-66
2021/07/28 06:31:28;;;;;;;5.43;3.92;;;22.80;65.00;;;;;;5050865;28;20183;-66
2021/07/28 06:33:53;;;;;;;5.28;3.60;;;22.80;64.90;;;;;;5051687;28;20174;-67
2021/07/28 06:36:19;;;;;;;4.40;3.33;;;22.80;65.00;;;;;;5050944;28;20201;-67
2021/07/28 06:38:44;;;;;;;4.63;3.72;;;22.90;64.90;;;;;;5050467;28;20648;-65
2021/07/28 06:41:10;;;;;;;4.18;3.78;;;22.90;64.70;;;;;;5051210;28;20183;-66
2021/07/28 06:43:35;;;;;;;4.72;3.42;;;22.90;64.90;;;;;;5050300;28;20633;-64
2021/07/28 06:46:01;;;;;;;4.05;3.35;;;23.00;64.80;;;;;;5051213;28;20230;-65
2021/07/28 06:48:27;;;;;;;4.55;3.92;;;23.00;64.90;;;;;;5051016;28;20206;-65
2021/07/28 06:50:53;;;;;;;4.65;3.72;;;23.00;64.90;;;;;;5050705;28;20191;-65
2021/07/28 06:53:18;;;;;;;5.13;3.88;;;22.90;64.80;;;;;;5050582;28;20179;-68
2021/07/28 06:55:44;;;;;;;5.13;3.47;;;22.90;64.90;;;;;;5050928;28;20183;-63
2021/07/28 06:58:09;;;;;;;4.35;3.70;;;23.00;64.80;;;;;;5050502;28;20605;-64
2021/07/28 07:00:35;;;;;;;4.68;3.65;;;22.90;64.60;;;;;;5050562;28;20402;-63
2021/07/28 07:03:00;;;;;;;4.15;3.75;;;22.90;64.70;;;;;;5050962;28;20276;-63
2021/07/28 07:05:26;;;;;;;4.15;3.67;;;23.00;64.60;;;;;;5050409;28;20179;-63
2021/07/28 07:07:52;;;;;;;4.20;3.80;;;23.00;64.50;;;;;;5050543;28;20234;-63
2021/07/28 07:10:17;;;;;;;4.43;4.00;;;23.00;64.40;;;;;;5050617;28;20175;-64
2021/07/28 07:12:43;;;;;;;4.30;3.65;;;23.10;64.50;;;;;;5050512;28;20183;-64
2021/07/28 07:15:08;;;;;;;4.55;3.80;;;23.00;64.50;;;;;;5050597;28;20551;-65
2021/07/28 07:17:34;;;;;;;5.40;4.10;;;23.00;64.50;;;;;;5050626;28;20175;-64
2021/07/28 07:19:59;;;;;;;5.57;4.10;;;23.00;64.60;;;;;;5050524;28;20171;-63
2021/07/28 07:22:25;;;;;;;4.40;3.67;;;23.00;64.60;;;;;;5050515;28;20268;-62
2021/07/28 07:24:51;;;;;;;4.10;3.78;;;23.00;64.50;;;;;;5051005;28;20167;-64
2021/07/28 07:27:16;;;;;;;5.88;3.65;;;23.10;64.50;;;;;;5049664;28;20229;-63
2021/07/28 07:29:43;;;;;;;6.05;4.68;;;23.10;64.30;;;;;;5051204;28;20625;-64
2021/07/28 07:32:08;;;;;;;4.22;3.70;;;23.20;64.30;;;;;;5050987;28;20183;-65
2021/07/28 07:34:34;;;;;;;4.32;3.85;;;23.20;64.40;;;;;;5049878;28;20178;-65
2021/07/28 07:36:59;;;;;;;4.90;3.88;;;23.20;64.30;;;;;;5054304;28;20202;-69
2021/07/28 07:39:25;;;;;;;5.97;4.32;;;23.10;64.30;;;;;;5054235;28;20532;-70
2021/07/28 07:41:50;;;;;;;5.40;3.92;;;23.20;64.30;;;;;;5053349;28;20203;-69
2021/07/28 07:44:16;;;;;;;3.75;3.42;;;23.20;64.20;;;;;;5053918;28;20181;-71
2021/07/28 07:46:42;;;;;;;4.50;4.10;;;23.10;64.20;;;;;;5054318;28;20226;-68
2021/07/28 07:49:08;;;;;;;7.35;4.45;;;23.10;64.30;;;;;;5053386;28;20652;-68
2021/07/28 07:51:33;;;;;;;4.43;3.75;;;23.10;64.30;;;;;;5054049;28;20171;-69
2021/07/28 07:53:59;;;;;;;4.35;3.95;;;23.10;64.40;;;;;;5053929;28;20179;-68
2021/07/28 07:56:25;;;;;;;4.07;3.67;;;23.10;64.50;;;;;;5053684;28;20194;-69
2021/07/28 07:58:50;;;;;;;5.65;4.10;;;23.10;64.50;;;;;;5054212;28;20714;-70
2021/07/28 08:01:16;;;;;;;6.00;4.00;;;23.10;64.50;;;;;;5053455;28;20282;-71
2021/07/28 08:03:42;;;;;;;4.95;4.15;;;23.00;64.40;;;;;;5053889;28;20189;-70
2021/07/28 08:06:07;;;;;;;4.30;3.90;;;23.10;64.30;;;;;;5053845;28;20289;-68
2021/07/28 08:08:33;;;;;;;4.63;3.50;;;23.20;64.30;;;;;;5053462;28;20185;-69
2021/07/28 08:11:00;;;;;;;3.83;3.53;;;23.20;64.30;;;;;;5035998;28;20613;-71
2021/07/28 08:13:26;;;;;;;3.92;3.60;;;23.30;64.20;;;;;;5054061;28;20186;-71
2021/07/28 08:15:52;;;;;;;4.20;3.80;;;23.20;64.10;;;;;;5053614;28;20241;-69
2021/07/28 08:18:20;;;;;;;4.13;3.72;;;23.30;64.10;;;;;;5053821;28;20179;-69
2021/07/28 08:20:46;;;;;;;4.78;4.05;;;23.30;63.90;;;;;;5054129;28;20262;-67
2021/07/28 08:23:13;;;;;;;4.40;4.00;;;23.40;63.90;;;;;;5053004;28;20603;-65
2021/07/28 08:25:39;;;;;;;4.65;4.18;;;23.40;63.90;;;;;;5053557;28;20202;-65
2021/07/28 08:28:04;;;;;;;3.92;3.50;;;23.40;64.00;;;;;;5053823;28;20179;-65
2021/07/28 08:30:30;;;;;;;4.50;3.50;;;23.40;64.20;;;;;;5052745;28;20180;-66
2021/07/28 08:32:56;;;;;;;4.70;3.90;;;23.30;65.10;;;;;;5053656;28;20175;-65
2021/07/28 08:35:24;;;;;;;3.67;3.30;;;23.30;64.30;;;;;;5053532;28;20186;-67
2021/07/28 08:37:53;;;;;;;4.38;3.70;;;23.30;64.30;;;;;;5053307;28;20168;-67
2021/07/28 08:40:18;;;;;;;3.78;3.47;;;23.30;64.40;;;;;;5053320;28;20171;-66
2021/07/28 08:42:48;;;;;;;3.80;3.50;;;23.40;64.20;;;;;;5053634;28;20229;-66
2021/07/28 08:45:15;;;;;;;4.40;4.00;;;23.50;64.00;;;;;;5053179;28;20195;-65
2021/07/28 08:47:42;;;;;;;4.20;3.67;;;23.60;64.00;;;;;;5052524;28;20665;-66
2021/07/28 08:50:08;;;;;;;4.32;3.92;;;23.50;63.70;;;;;;5035164;28;20183;-65
2021/07/28 08:52:34;;;;;;;4.30;3.78;;;23.60;63.90;;;;;;5052733;28;20175;-69
2021/07/28 08:55:00;;;;;;;5.65;3.95;;;23.60;63.80;;;;;;5053207;28;20201;-67
2021/07/28 08:57:27;;;;;;;3.90;3.60;;;23.60;63.60;;;;;;5051553;28;20186;-67
2021/07/28 08:59:55;;;;;;;5.30;3.28;;;23.70;63.60;;;;;;5060227;28;20171;-66
2021/07/28 09:02:21;;;;;;;5.50;3.78;;;23.70;63.60;;;;;;5059421;28;20676;-67
2021/07/28 09:04:46;;;;;;;3.78;3.47;;;23.70;63.70;;;;;;5072744;28;20189;-67
2021/07/28 09:07:14;;;;;;;4.30;3.90;;;23.70;63.80;;;;;;5072908;28;20233;-67
2021/07/28 09:09:53;;;;;;;3.53;3.13;;;23.60;63.90;;;;;;5072404;28;20602;-68
2021/07/28 09:12:22;;;;;;;4.30;3.88;;;23.70;63.80;;;;;;5072055;28;20223;-67
2021/07/28 09:14:52;;;;;;;4.78;3.80;;;23.60;63.70;;;;;;5068789;28;20190;-66
2021/07/28 09:17:20;;;;;;;5.60;4.20;;;23.60;64.00;;;;;;5052695;28;20245;-66
2021/07/28 09:19:47;;;;;;;3.80;3.50;;;23.60;64.10;;;;;;5052507;28;20276;-66
2021/07/28 09:22:13;;;;;;;4.30;3.47;;;23.70;63.90;;;;;;5069496;28;20660;-66
2021/07/28 09:24:40;;;;;;;4.53;3.63;;;23.60;64.00;;;;;;5062274;28;20541;-65
2021/07/28 09:27:06;;;;;;;3.40;3.10;;;23.70;63.80;;;;;;5051465;28;20186;-66
2021/07/28 09:29:33;;;;;;;4.60;3.10;;;23.70;63.60;;;;;;5067901;28;20174;-67
2021/07/28 09:32:06;;;;;;;3.67;3.38;;;23.70;63.70;;;;;;5072572;28;20201;-66
2021/07/28 09:34:33;;;;;;;3.95;3.65;;;23.70;63.60;;;;;;5071140;28;20194;-67
2021/07/28 09:37:10;;;;;;;4.65;3.50;;;23.70;63.40;;;;;;5065511;28;20521;-66
2021/07/28 09:39:37;;;;;;;4.28;3.60;;;23.70;63.60;;;;;;5051379;28;20211;-67
2021/07/28 09:42:12;;;;;;;3.63;3.30;;;23.70;63.50;;;;;;5051794;28;20219;-66
2021/07/28 09:44:42;;;;;;;4.00;3.33;;;23.80;63.30;;;;;;5051762;28;20208;-66
2021/07/28 09:47:16;;;;;;;3.60;3.28;;;23.70;63.10;;;;;;5056238;28;20186;-66
2021/07/28 09:50:01;;;;;;;4.45;3.92;;;23.80;63.20;;;;;;5053116;28;20852;-65
2021/07/28 09:52:34;;;;;;;4.00;3.35;;;23.80;63.40;;;;;;5049269;28;20178;-66
2021/07/28 09:55:19;;;;;;;3.53;3.22;;;23.80;63.30;;;;;;5059226;28;20264;-66
2021/07/28 09:57:44;;;;;;;5.40;4.43;;;23.70;63.40;;;;;;5052016;28;20216;-66
2021/07/28 10:00:10;;;;;;;3.53;3.25;;;23.80;63.30;;;;;;5069732;28;20542;-66
2021/07/28 10:02:36;;;;;;;3.97;3.17;;;23.90;63.20;;;;;;5069174;28;20226;-67
2021/07/28 10:05:03;;;;;;;3.55;3.22;;;23.90;63.00;;;;;;5072208;28;20190;-66
2021/07/28 10:07:32;;;;;;;3.78;3.38;;;23.90;62.90;;;;;;5061459;28;20227;-67
2021/07/28 10:10:02;;;;;;;3.38;3.03;;;23.80;62.90;;;;;;5033530;28;20171;-67
2021/07/28 10:12:28;;;;;;;4.88;3.20;;;23.90;62.80;;;;;;5051887;28;20168;-67
2021/07/28 10:14:53;;;;;;;3.55;3.25;;;23.90;62.60;;;;;;5051138;28;20189;-67
2021/07/28 10:17:18;;;;;;;3.17;2.90;;;24.00;62.60;;;;;;5049530;28;20183;-66
2021/07/28 10:19:44;;;;;;;3.53;2.97;;;23.90;62.50;;;;;;5051533;28;20171;-66
2021/07/28 10:22:11;;;;;;;3.55;3.20;;;24.00;62.40;;;;;;5032834;28;20203;-66
2021/07/28 10:24:36;;;;;;;4.03;3.20;;;24.00;62.20;;;;;;5060751;28;20586;-66
2021/07/28 10:27:02;;;;;;;3.15;2.50;;;24.00;62.10;;;;;;5054200;28;20698;-67
2021/07/28 10:29:27;;;;;;;3.20;2.90;;;24.10;62.00;;;;;;5032548;28;20250;-67
2021/07/28 10:31:54;;;;;;;2.95;2.75;;;24.10;61.90;;;;;;5051294;28;20175;-67
2021/07/28 10:34:35;;;;;;;3.08;2.78;;;24.10;61.80;;;;;;5051275;28;20187;-64
2021/07/28 10:37:05;;;;;;;3.40;3.10;;;24.10;61.30;;;;;;5050686;28;20187;-64
2021/07/28 10:39:44;;;;;;;3.53;3.13;;;24.00;61.40;;;;;;5045687;28;20248;-77
2021/07/28 10:42:13;;;;;;;5.45;2.97;;;23.90;61.60;;;;;;5052636;28;20215;-76
2021/07/28 10:44:57;;;;;;;6.03;3.25;;;23.90;61.70;;;;;;5052511;28;20521;-78
2021/07/28 10:47:32;;;;;;;6.05;2.88;;;23.90;61.80;;;;;;5052015;28;20702;-77
2021/07/28 10:49:58;;;;;;;3.80;2.78;;;24.00;61.60;;;;;;5050839;28;20349;-75
2021/07/28 10:52:39;;;;;;;3.65;2.53;;;24.10;61.40;;;;;;5050898;28;20265;-78
2021/07/28 10:55:04;;;;;;;2.80;2.60;;;24.10;61.10;;;;;;5051319;28;20199;-77
2021/07/28 10:57:52;;;;;;;3.20;2.88;;;24.20;60.90;;;;;;5050334;28;20176;-75
2021/07/28 11:00:37;;;;;;;4.10;2.47;;;24.30;60.60;;;;;;5050654;28;20178;-77
2021/07/28 11:03:04;;;;;;;3.63;2.75;;;24.30;60.60;;;;;;5051103;28;20692;-75
2021/07/28 11:05:31;;;;;;;3.35;2.70;;;24.20;60.90;;;;;;5050213;28;20254;-75
2021/07/28 11:08:02;;;;;;;6.38;2.70;;;24.10;61.00;;;;;;5050874;28;20754;-74
2021/07/28 11:10:28;;;;;;;3.08;2.53;;;24.00;61.20;;;;;;5051923;28;20236;-66
2021/07/28 11:12:54;;;;;;;3.08;2.60;;;24.00;61.00;;;;;;5054502;28;20179;-68
2021/07/28 11:15:19;;;;;;;3.63;2.35;;;24.10;61.00;;;;;;5054815;28;20181;-68
2021/07/28 11:17:45;;;;;;;4.03;2.92;;;24.20;60.90;;;;;;5054845;28;20175;-67
2021/07/28 11:20:25;;;;;;;6.32;2.65;;;24.20;61.00;;;;;;5054362;28;20271;-67
2021/07/28 11:22:50;;;;;;;3.65;3.08;;;24.10;61.10;;;;;;5039009;28;20213;-67
2021/07/28 11:25:16;;;;;;;2.67;2.47;;;24.00;61.20;;;;;;5053997;28;20566;-69
2021/07/28 11:28:01;;;;;;;7.38;3.00;;;24.00;61.40;;;;;;5054994;28;20190;-70
2021/07/28 11:30:27;;;;;;;3.38;2.47;;;24.00;61.40;;;;;;5039498;28;20177;-69
2021/07/28 11:32:52;;;;;;;3.85;2.35;;;24.10;60.80;;;;;;5054025;28;20178;-70
2021/07/28 11:35:18;;;;;;;2.20;2.00;;;24.10;60.60;;;;;;5054405;28;20498;-70
2021/07/28 11:37:44;;;;;;;3.42;2.10;;;24.20;60.20;;;;;;5036743;28;20229;-71
2021/07/28 11:40:10;;;;;;;3.85;2.30;;;24.20;60.10;;;;;;5054232;28;20257;-70
2021/07/28 11:42:35;;;;;;;3.70;2.17;;;24.20;59.90;;;;;;5054151;28;20700;-70
2021/07/28 11:45:01;;;;;;;3.58;2.42;;;24.10;60.60;;;;;;5036480;28;20185;-71
2021/07/28 11:47:27;;;;;;;4.18;2.28;;;24.00;59.80;;;;;;5035649;28;20206;-70
2021/07/28 11:50:05;;;;;;;3.13;2.20;;;24.00;60.00;;;;;;5054390;28;20178;-71
2021/07/28 11:52:46;;;;;;;3.95;2.22;;;23.90;59.90;;;;;;5054358;28;20179;-72
2021/07/28 11:55:22;;;;;;;2.30;2.10;;;23.90;60.00;;;;;;5053715;28;20325;-69
2021/07/28 11:57:50;;;;;;;2.60;2.40;;;23.80;59.90;;;;;;5054393;28;20175;-68
2021/07/28 12:00:39;;;;;;;4.50;2.70;;;23.80;59.80;;;;;;5029447;28;20184;-69
2021/07/28 12:03:25;;;;;;;3.20;2.53;;;23.90;59.90;;;;;;5054424;28;20222;-69
2021/07/28 12:06:00;;;;;;;2.30;2.10;;;24.00;59.70;;;;;;5054266;28;20174;-68
2021/07/28 12:08:35;;;;;;;2.97;2.30;;;24.00;59.50;;;;;;5052975;28;20178;-68
2021/07/28 12:11:05;;;;;;;3.35;2.22;;;24.00;59.50;;;;;;5054116;28;20648;-68
2021/07/28 12:13:43;;;;;;;3.55;2.40;;;24.00;59.50;;;;;;5053737;28;20633;-68
2021/07/28 12:16:08;;;;;;;3.55;2.28;;;24.00;59.30;;;;;;5053158;28;20717;-68
2021/07/28 12:18:46;;;;;;;3.65;2.25;;;24.00;59.10;;;;;;5053634;28;20258;-67
2021/07/28 12:21:12;;;;;;;2.58;2.10;;;24.10;59.00;;;;;;5052639;28;20260;-67
2021/07/28 12:24:03;;;;;;;2.42;2.05;;;24.20;58.90;;;;;;5052722;28;20205;-68
2021/07/28 12:26:46;;;;;;;2.35;2.13;;;24.20;58.70;;;;;;5053433;28;20182;-67
2021/07/28 12:29:31;;;;;;;2.35;2.15;;;24.20;58.70;;;;;;5052673;28;20187;-67
2021/07/28 12:31:58;;;;;;;3.50;2.38;;;24.20;58.80;;;;;;5036211;28;20199;-68
2021/07/28 12:34:23;;;;;;;3.03;2.10;;;24.10;58.70;;;;;;5035267;28;20171;-68
2021/07/28 12:36:49;;;;;;;3.42;1.92;;;24.10;58.70;;;;;;5052057;28;20185;-69
2021/07/28 12:39:14;;;;;;;2.25;2.05;;;24.10;58.70;;;;;;5053581;28;20202;-69
2021/07/28 12:41:40;;;;;;;2.67;2.40;;;24.10;58.50;;;;;;5052952;28;20229;-68
2021/07/28 12:44:05;;;;;;;2.42;2.08;;;24.10;58.40;;;;;;5052762;28;20672;-69
2021/07/28 12:46:31;;;;;;;3.13;2.13;;;24.20;58.30;;;;;;5052902;28;20187;-69
2021/07/28 12:48:56;;;;;;;2.55;2.10;;;24.10;58.30;;;;;;5053664;28;20233;-70
2021/07/28 12:51:22;;;;;;;4.53;2.00;;;24.10;58.40;;;;;;5052379;28;20475;-70
2021/07/28 12:53:49;;;;;;;3.22;2.15;;;24.10;58.90;;;;;;5053525;28;20172;-69